sensor_id;sensor_type;location;lat;lon;timestamp;temperature;humidity
46319;DHT22;32042;50.916;2.926;2023-05-27T12:01:24;21.40;99.90
46319;DHT22;32042;50.916;2.926;2023-05-27T12:03:50;21.30;99.90
46319;DHT22;32042;50.916;2.926;2023-05-27T12:06:16;21.20;99.90
46319;DHT22;32042;50.916;2.926;2023-05-27T12:08:42;21.20;99.90
46319;DHT22;32042;50.916;2.926;2023-05-27T12:11:08;21.20;99.90
46319;DHT22;32042;50.916;2.926;2023-05-27T12:13:34;21.10;99.90
46319;DHT22;32042;50.916;2.926;2023-05-27T12:15:59;21.30;99.90
46319;DHT22;32042;50.916;2.926;2023-05-27T12:18:25;21.20;99.90
46319;DHT22;32042;50.916;2.926;2023-05-27T12:20:54;21.00;99.90
46319;DHT22;32042;50.916;2.926;2023-05-27T12:23:20;20.80;99.90
46319;DHT22;32042;50.916;2.926;2023-05-27T12:25:45;20.80;99.90
46319;DHT22;32042;50.916;2.926;2023-05-27T12:28:11;20.90;99.90
46319;DHT22;32042;50.916;2.926;2023-05-27T12:30:37;21.00;99.90
46319;DHT22;32042;50.916;2.926;2023-05-27T12:33:04;21.10;99.90
46319;DHT22;32042;50.916;2.926;2023-05-27T12:35:30;21.30;99.90
46319;DHT22;32042;50.916;2.926;2023-05-27T12:37:57;21.40;99.90
46319;DHT22;32042;50.916;2.926;2023-05-27T12:40:24;21.50;99.90
46319;DHT22;32042;50.916;2.926;2023-05-27T12:42:49;21.50;99.90
46319;DHT22;32042;50.916;2.926;2023-05-27T12:45:15;21.50;99.90
46319;DHT22;32042;50.916;2.926;2023-05-27T12:47:41;21.60;99.90
46319;DHT22;32042;50.916;2.926;2023-05-27T12:50:07;21.90;99.90
46319;DHT22;32042;50.916;2.926;2023-05-27T12:52:33;21.90;99.90
46319;DHT22;32042;50.916;2.926;2023-05-27T12:54:59;21.90;99.90
46319;DHT22;32042;50.916;2.926;2023-05-27T12:57:26;21.80;99.90
46319;DHT22;32042;50.916;2.926;2023-05-27T12:59:52;21.60;99.90
46319;DHT22;32042;50.916;2.926;2023-05-27T13:02:17;21.50;99.90
46319;DHT22;32042;50.916;2.926;2023-05-27T13:04:43;21.30;99.90
46319;DHT22;32042;50.916;2.926;2023-05-27T13:07:10;21.30;99.90
46319;DHT22;32042;50.916;2.926;2023-05-27T13:09:42;21.30;99.90
46319;DHT22;32042;50.916;2.926;2023-05-27T13:12:08;21.40;99.90
46319;DHT22;32042;50.916;2.926;2023-05-27T13:14:33;21.50;99.90
46319;DHT22;32042;50.916;2.926;2023-05-27T13:16:59;21.60;99.90
46319;DHT22;32042;50.916;2.926;2023-05-27T13:19:25;21.70;99.90
46319;DHT22;32042;50.916;2.926;2023-05-27T13:21:51;21.70;99.90
46319;DHT22;32042;50.916;2.926;2023-05-27T13:24:17;21.80;99.90
46319;DHT22;32042;50.916;2.926;2023-05-27T13:26:43;21.80;99.90
46319;DHT22;32042;50.916;2.926;2023-05-27T13:29:09;21.90;99.90
46319;DHT22;32042;50.916;2.926;2023-05-27T13:31:35;21.80;99.90
46319;DHT22;32042;50.916;2.926;2023-05-27T13:34:00;21.90;99.90
46319;DHT22;32042;50.916;2.926;2023-05-27T13:36:26;22.00;99.90
46319;DHT22;32042;50.916;2.926;2023-05-27T13:38:52;22.00;99.90
46319;DHT22;32042;50.916;2.926;2023-05-27T13:41:18;22.00;99.90
46319;DHT22;32042;50.916;2.926;2023-05-27T13:43:43;21.90;99.90
46319;DHT22;32042;50.916;2.926;2023-05-27T13:46:09;21.70;99.90
46319;DHT22;32042;50.916;2.926;2023-05-27T13:48:35;21.60;99.90
46319;DHT22;32042;50.916;2.926;2023-05-27T13:51:00;21.50;99.90
46319;DHT22;32042;50.916;2.926;2023-05-27T13:53:26;21.50;99.90
46319;DHT22;32042;50.916;2.926;2023-05-27T13:55:52;21.40;99.90
46319;DHT22;32042;50.916;2.926;2023-05-27T13:58:18;21.40;99.90
46319;DHT22;32042;50.916;2.926;2023-05-27T14:00:44;21.20;99.90
46319;DHT22;32042;50.916;2.926;2023-05-27T14:03:09;21.00;99.90
46319;DHT22;32042;50.916;2.926;2023-05-27T14:05:35;21.00;99.90
46319;DHT22;32042;50.916;2.926;2023-05-27T14:08:04;21.10;99.90
46319;DHT22;32042;50.916;2.926;2023-05-27T14:10:34;21.10;99.90
46319;DHT22;32042;50.916;2.926;2023-05-27T14:13:00;21.10;99.90
46319;DHT22;32042;50.916;2.926;2023-05-27T14:15:26;21.00;99.90
46319;DHT22;32042;50.916;2.926;2023-05-27T14:17:54;20.90;99.90
46319;DHT22;32042;50.916;2.926;2023-05-27T14:20:20;21.00;99.90
46319;DHT22;32042;50.916;2.926;2023-05-27T14:22:46;21.00;99.90
46319;DHT22;32042;50.916;2.926;2023-05-27T14:25:12;21.00;99.90
46319;DHT22;32042;50.916;2.926;2023-05-27T14:27:39;20.90;99.90
46319;DHT22;32042;50.916;2.926;2023-05-27T14:30:06;20.80;99.90
46319;DHT22;32042;50.916;2.926;2023-05-27T14:32:31;20.90;99.90
46319;DHT22;32042;50.916;2.926;2023-05-27T14:34:57;21.00;99.90
46319;DHT22;32042;50.916;2.926;2023-05-27T14:37:23;21.00;99.90
46319;DHT22;32042;50.916;2.926;2023-05-27T14:39:51;20.90;99.90
46319;DHT22;32042;50.916;2.926;2023-05-27T14:42:17;20.90;99.90
46319;DHT22;32042;50.916;2.926;2023-05-27T14:44:43;21.00;99.90
46319;DHT22;32042;50.916;2.926;2023-05-27T14:47:09;20.90;99.90
46319;DHT22;32042;50.916;2.926;2023-05-27T14:49:35;20.90;99.90
46319;DHT22;32042;50.916;2.926;2023-05-27T14:52:01;21.00;99.90
46319;DHT22;32042;50.916;2.926;2023-05-27T14:54:27;21.20;99.90
46319;DHT22;32042;50.916;2.926;2023-05-27T14:56:53;21.20;99.90
46319;DHT22;32042;50.916;2.926;2023-05-27T14:59:19;21.10;99.90
46319;DHT22;32042;50.916;2.926;2023-05-27T15:01:47;21.20;99.90
46319;DHT22;32042;50.916;2.926;2023-05-27T15:04:13;21.00;99.90
46319;DHT22;32042;50.916;2.926;2023-05-27T15:06:39;20.90;99.90
46319;DHT22;32042;50.916;2.926;2023-05-27T15:09:05;20.80;99.90
46319;DHT22;32042;50.916;2.926;2023-05-27T15:11:31;20.60;99.90
46319;DHT22;32042;50.916;2.926;2023-05-27T15:13:57;20.60;99.90
46319;DHT22;32042;50.916;2.926;2023-05-27T15:16:25;20.50;99.90
46319;DHT22;32042;50.916;2.926;2023-05-27T15:18:51;20.50;99.90
46319;DHT22;32042;50.916;2.926;2023-05-27T15:21:16;20.60;99.90
46319;DHT22;32042;50.916;2.926;2023-05-27T15:23:42;20.70;99.90
46319;DHT22;32042;50.916;2.926;2023-05-27T15:26:09;20.70;99.90
46319;DHT22;32042;50.916;2.926;2023-05-27T15:28:34;20.70;99.90
46319;DHT22;32042;50.916;2.926;2023-05-27T15:31:00;20.80;99.90
46319;DHT22;32042;50.916;2.926;2023-05-27T15:33:26;20.70;99.90
46319;DHT22;32042;50.916;2.926;2023-05-27T15:35:51;20.60;99.90
46319;DHT22;32042;50.916;2.926;2023-05-27T15:38:17;20.50;99.90
46319;DHT22;32042;50.916;2.926;2023-05-27T15:40:43;20.40;99.90
46319;DHT22;32042;50.916;2.926;2023-05-27T15:43:11;20.20;99.90
46319;DHT22;32042;50.916;2.926;2023-05-27T15:45:37;20.20;99.90
46319;DHT22;32042;50.916;2.926;2023-05-27T15:48:09;20.40;99.90
46319;DHT22;32042;50.916;2.926;2023-05-27T15:50:41;20.40;99.90
46319;DHT22;32042;50.916;2.926;2023-05-27T15:53:07;20.50;99.90
46319;DHT22;32042;50.916;2.926;2023-05-27T15:55:33;20.50;99.90
46319;DHT22;32042;50.916;2.926;2023-05-27T15:57:59;20.60;99.90
46319;DHT22;32042;50.916;2.926;2023-05-27T16:00:25;20.60;99.90
46319;DHT22;32042;50.916;2.926;2023-05-27T16:02:51;20.70;99.90
46319;DHT22;32042;50.916;2.926;2023-05-27T16:05:17;20.70;99.90
46319;DHT22;32042;50.916;2.926;2023-05-27T16:07:42;20.70;99.90
46319;DHT22;32042;50.916;2.926;2023-05-27T16:10:11;20.60;99.90
46319;DHT22;32042;50.916;2.926;2023-05-27T16:12:37;20.50;99.90
46319;DHT22;32042;50.916;2.926;2023-05-27T16:15:03;20.50;99.90
46319;DHT22;32042;50.916;2.926;2023-05-27T16:17:30;20.60;99.90
46319;DHT22;32042;50.916;2.926;2023-05-27T16:19:56;20.50;99.90
46319;DHT22;32042;50.916;2.926;2023-05-27T16:22:22;20.50;99.90
46319;DHT22;32042;50.916;2.926;2023-05-27T16:24:48;20.50;99.90
46319;DHT22;32042;50.916;2.926;2023-05-27T16:27:14;20.60;99.90
46319;DHT22;32042;50.916;2.926;2023-05-27T16:29:40;20.50;99.90
46319;DHT22;32042;50.916;2.926;2023-05-27T16:32:07;20.30;99.90
46319;DHT22;32042;50.916;2.926;2023-05-27T16:34:33;20.30;99.90
46319;DHT22;32042;50.916;2.926;2023-05-27T16:36:58;20.20;99.90
46319;DHT22;32042;50.916;2.926;2023-05-27T16:39:25;20.10;99.90
46319;DHT22;32042;50.916;2.926;2023-05-27T16:41:51;20.10;99.90
46319;DHT22;32042;50.916;2.926;2023-05-27T16:44:17;19.90;99.90
46319;DHT22;32042;50.916;2.926;2023-05-27T16:46:43;19.70;99.90
46319;DHT22;32042;50.916;2.926;2023-05-27T16:49:09;19.60;99.90
46319;DHT22;32042;50.916;2.926;2023-05-27T16:51:35;19.60;99.90
46319;DHT22;32042;50.916;2.926;2023-05-27T16:54:01;19.50;99.90
46319;DHT22;32042;50.916;2.926;2023-05-27T16:56:27;19.40;99.90
46319;DHT22;32042;50.916;2.926;2023-05-27T16:58:53;19.30;99.90
46319;DHT22;32042;50.916;2.926;2023-05-27T17:01:20;19.20;99.90
46319;DHT22;32042;50.916;2.926;2023-05-27T17:03:46;19.30;99.90
46319;DHT22;32042;50.916;2.926;2023-05-27T17:06:12;19.40;99.90
46319;DHT22;32042;50.916;2.926;2023-05-27T17:08:38;19.50;99.90
46319;DHT22;32042;50.916;2.926;2023-05-27T17:11:03;19.40;99.90
46319;DHT22;32042;50.916;2.926;2023-05-27T17:13:29;19.40;99.90
46319;DHT22;32042;50.916;2.926;2023-05-27T17:15:55;19.30;99.90
46319;DHT22;32042;50.916;2.926;2023-05-27T17:18:21;19.30;99.90
46319;DHT22;32042;50.916;2.926;2023-05-27T17:20:47;19.40;99.90
46319;DHT22;32042;50.916;2.926;2023-05-27T17:23:12;19.30;99.90
46319;DHT22;32042;50.916;2.926;2023-05-27T17:25:38;19.20;99.90
46319;DHT22;32042;50.916;2.926;2023-05-27T17:28:04;19.10;99.90
46319;DHT22;32042;50.916;2.926;2023-05-27T17:30:29;19.10;99.90
46319;DHT22;32042;50.916;2.926;2023-05-27T17:32:55;18.80;99.90
46319;DHT22;32042;50.916;2.926;2023-05-27T17:35:21;18.80;99.90
46319;DHT22;32042;50.916;2.926;2023-05-27T17:37:47;18.70;99.90
46319;DHT22;32042;50.916;2.926;2023-05-27T17:40:13;18.60;99.90
46319;DHT22;32042;50.916;2.926;2023-05-27T17:42:39;18.50;99.90
46319;DHT22;32042;50.916;2.926;2023-05-27T17:45:05;18.40;99.90
46319;DHT22;32042;50.916;2.926;2023-05-27T17:47:31;18.40;99.90
46319;DHT22;32042;50.916;2.926;2023-05-27T17:49:57;18.30;99.90
46319;DHT22;32042;50.916;2.926;2023-05-27T17:52:22;18.20;99.90
46319;DHT22;32042;50.916;2.926;2023-05-27T17:54:48;18.20;99.90
46319;DHT22;32042;50.916;2.926;2023-05-27T17:57:14;18.10;99.90
46319;DHT22;32042;50.916;2.926;2023-05-27T17:59:40;18.10;99.90
46319;DHT22;32042;50.916;2.926;2023-05-27T18:02:05;18.10;99.90
46319;DHT22;32042;50.916;2.926;2023-05-27T18:04:31;17.90;99.90
46319;DHT22;32042;50.916;2.926;2023-05-27T18:06:57;17.90;99.90
46319;DHT22;32042;50.916;2.926;2023-05-27T18:09:22;17.80;99.90
46319;DHT22;32042;50.916;2.926;2023-05-27T18:11:48;17.70;99.90
46319;DHT22;32042;50.916;2.926;2023-05-27T18:14:14;17.60;99.90
46319;DHT22;32042;50.916;2.926;2023-05-27T18:16:39;17.60;99.90
46319;DHT22;32042;50.916;2.926;2023-05-27T18:19:05;17.50;99.90
46319;DHT22;32042;50.916;2.926;2023-05-27T18:21:31;17.50;99.90
46319;DHT22;32042;50.916;2.926;2023-05-27T18:23:57;17.40;99.90
46319;DHT22;32042;50.916;2.926;2023-05-27T18:26:23;17.40;99.90
46319;DHT22;32042;50.916;2.926;2023-05-27T18:28:48;17.30;99.90
46319;DHT22;32042;50.916;2.926;2023-05-27T18:31:14;17.30;99.90
46319;DHT22;32042;50.916;2.926;2023-05-27T18:33:41;17.20;99.90
46319;DHT22;32042;50.916;2.926;2023-05-27T18:36:07;17.20;99.90
46319;DHT22;32042;50.916;2.926;2023-05-27T18:38:32;17.20;99.90
46319;DHT22;32042;50.916;2.926;2023-05-27T18:41:00;17.10;99.90
46319;DHT22;32042;50.916;2.926;2023-05-27T18:43:27;17.00;99.90
46319;DHT22;32042;50.916;2.926;2023-05-27T18:45:55;16.90;99.90
46319;DHT22;32042;50.916;2.926;2023-05-27T18:48:25;16.90;99.90
46319;DHT22;32042;50.916;2.926;2023-05-27T18:50:53;16.80;99.90
46319;DHT22;32042;50.916;2.926;2023-05-27T18:53:19;16.80;99.90
46319;DHT22;32042;50.916;2.926;2023-05-27T18:55:45;16.70;99.90
46319;DHT22;32042;50.916;2.926;2023-05-27T18:58:11;16.70;99.90
46319;DHT22;32042;50.916;2.926;2023-05-27T19:00:37;16.60;99.90
46319;DHT22;32042;50.916;2.926;2023-05-27T19:03:04;16.50;99.90
46319;DHT22;32042;50.916;2.926;2023-05-27T19:05:30;16.50;99.90
46319;DHT22;32042;50.916;2.926;2023-05-27T19:07:57;16.40;99.90
46319;DHT22;32042;50.916;2.926;2023-05-27T19:10:23;16.30;99.90
46319;DHT22;32042;50.916;2.926;2023-05-27T19:12:48;16.30;99.90
46319;DHT22;32042;50.916;2.926;2023-05-27T19:15:14;16.20;99.90
46319;DHT22;32042;50.916;2.926;2023-05-27T19:17:40;16.20;99.90
46319;DHT22;32042;50.916;2.926;2023-05-27T19:20:07;16.10;99.90
46319;DHT22;32042;50.916;2.926;2023-05-27T19:22:33;16.00;99.90
46319;DHT22;32042;50.916;2.926;2023-05-27T19:24:59;16.00;99.90
46319;DHT22;32042;50.916;2.926;2023-05-27T19:27:25;15.80;99.90
46319;DHT22;32042;50.916;2.926;2023-05-27T19:29:50;15.80;99.90
46319;DHT22;32042;50.916;2.926;2023-05-27T19:32:16;15.70;99.90
46319;DHT22;32042;50.916;2.926;2023-05-27T19:34:42;15.60;99.90
46319;DHT22;32042;50.916;2.926;2023-05-27T19:37:08;15.60;99.90
46319;DHT22;32042;50.916;2.926;2023-05-27T19:39:33;15.50;99.90
46319;DHT22;32042;50.916;2.926;2023-05-27T19:41:59;15.40;99.90
46319;DHT22;32042;50.916;2.926;2023-05-27T19:44:25;15.40;99.90
46319;DHT22;32042;50.916;2.926;2023-05-27T19:46:52;15.40;99.90
46319;DHT22;32042;50.916;2.926;2023-05-27T19:49:18;15.30;99.90
46319;DHT22;32042;50.916;2.926;2023-05-27T19:51:44;15.30;99.90
46319;DHT22;32042;50.916;2.926;2023-05-27T19:54:10;15.20;99.90
46319;DHT22;32042;50.916;2.926;2023-05-27T19:56:35;15.10;99.90
46319;DHT22;32042;50.916;2.926;2023-05-27T19:59:01;15.00;99.90
46319;DHT22;32042;50.916;2.926;2023-05-27T20:01:26;15.00;99.90
46319;DHT22;32042;50.916;2.926;2023-05-27T20:03:52;14.90;99.90
46319;DHT22;32042;50.916;2.926;2023-05-27T20:06:18;14.90;99.90
46319;DHT22;32042;50.916;2.926;2023-05-27T20:08:44;14.80;99.90
46319;DHT22;32042;50.916;2.926;2023-05-27T20:11:10;14.70;99.90
46319;DHT22;32042;50.916;2.926;2023-05-27T20:13:36;14.70;99.90
46319;DHT22;32042;50.916;2.926;2023-05-27T20:16:03;14.60;99.90
46319;DHT22;32042;50.916;2.926;2023-05-27T20:18:29;14.50;99.90
46319;DHT22;32042;50.916;2.926;2023-05-27T20:20:55;14.40;99.90
46319;DHT22;32042;50.916;2.926;2023-05-27T20:23:21;14.30;99.90
46319;DHT22;32042;50.916;2.926;2023-05-27T20:25:47;14.30;99.90
46319;DHT22;32042;50.916;2.926;2023-05-27T20:28:13;14.20;99.90
46319;DHT22;32042;50.916;2.926;2023-05-27T20:30:39;14.20;99.90
46319;DHT22;32042;50.916;2.926;2023-05-27T20:33:05;14.20;99.90
46319;DHT22;32042;50.916;2.926;2023-05-27T20:35:31;14.10;99.90
46319;DHT22;32042;50.916;2.926;2023-05-27T20:37:57;14.10;99.90
46319;DHT22;32042;50.916;2.926;2023-05-27T20:40:23;14.10;99.90
46319;DHT22;32042;50.916;2.926;2023-05-27T20:42:50;14.00;99.90
46319;DHT22;32042;50.916;2.926;2023-05-27T20:45:16;14.00;99.90
46319;DHT22;32042;50.916;2.926;2023-05-27T20:47:43;13.90;99.90
46319;DHT22;32042;50.916;2.926;2023-05-27T20:50:10;13.80;99.90
46319;DHT22;32042;50.916;2.926;2023-05-27T20:52:36;13.80;99.90
46319;DHT22;32042;50.916;2.926;2023-05-27T20:55:02;13.70;99.90
46319;DHT22;32042;50.916;2.926;2023-05-27T20:57:27;13.70;99.90
46319;DHT22;32042;50.916;2.926;2023-05-27T20:59:54;13.60;99.90
46319;DHT22;32042;50.916;2.926;2023-05-27T21:02:21;13.60;99.90
46319;DHT22;32042;50.916;2.926;2023-05-27T21:04:47;13.60;99.90
46319;DHT22;32042;50.916;2.926;2023-05-27T21:07:13;13.60;99.90
46319;DHT22;32042;50.916;2.926;2023-05-27T21:09:40;13.50;99.90
46319;DHT22;32042;50.916;2.926;2023-05-27T21:12:06;13.50;99.90
46319;DHT22;32042;50.916;2.926;2023-05-27T21:14:32;13.50;99.90
46319;DHT22;32042;50.916;2.926;2023-05-27T21:16:58;13.50;99.90
46319;DHT22;32042;50.916;2.926;2023-05-27T21:19:24;13.40;99.90
46319;DHT22;32042;50.916;2.926;2023-05-27T21:21:50;13.50;99.90
46319;DHT22;32042;50.916;2.926;2023-05-27T21:24:16;13.40;99.90
46319;DHT22;32042;50.916;2.926;2023-05-27T21:26:42;13.40;99.90
46319;DHT22;32042;50.916;2.926;2023-05-27T21:29:08;13.40;99.90
46319;DHT22;32042;50.916;2.926;2023-05-27T21:31:35;13.30;99.90
46319;DHT22;32042;50.916;2.926;2023-05-27T21:34:01;13.30;99.90
46319;DHT22;32042;50.916;2.926;2023-05-27T21:36:27;13.30;99.90
46319;DHT22;32042;50.916;2.926;2023-05-27T21:38:53;13.20;99.90
46319;DHT22;32042;50.916;2.926;2023-05-27T21:41:19;13.20;99.90
46319;DHT22;32042;50.916;2.926;2023-05-27T21:43:46;13.20;99.90
46319;DHT22;32042;50.916;2.926;2023-05-27T21:46:12;13.20;99.90
46319;DHT22;32042;50.916;2.926;2023-05-27T21:48:39;13.20;99.90
46319;DHT22;32042;50.916;2.926;2023-05-27T21:51:06;13.10;99.90
46319;DHT22;32042;50.916;2.926;2023-05-27T21:53:33;13.10;99.90
46319;DHT22;32042;50.916;2.926;2023-05-27T21:55:59;13.10;99.90
46319;DHT22;32042;50.916;2.926;2023-05-27T21:58:25;13.10;99.90
46319;DHT22;32042;50.916;2.926;2023-05-27T22:00:50;13.10;99.90
46319;DHT22;32042;50.916;2.926;2023-05-27T22:03:16;13.00;99.90
46319;DHT22;32042;50.916;2.926;2023-05-27T22:05:42;13.00;99.90
46319;DHT22;32042;50.916;2.926;2023-05-27T22:08:08;13.00;99.90
46319;DHT22;32042;50.916;2.926;2023-05-27T22:10:34;13.00;99.90
46319;DHT22;32042;50.916;2.926;2023-05-27T22:13:00;13.00;99.90
46319;DHT22;32042;50.916;2.926;2023-05-27T22:15:26;13.00;99.90
46319;DHT22;32042;50.916;2.926;2023-05-27T22:17:52;13.00;99.90
46319;DHT22;32042;50.916;2.926;2023-05-27T22:20:18;13.00;99.90
46319;DHT22;32042;50.916;2.926;2023-05-27T22:22:44;13.00;99.90
46319;DHT22;32042;50.916;2.926;2023-05-27T22:25:11;13.00;99.90
46319;DHT22;32042;50.916;2.926;2023-05-27T22:27:36;12.90;99.90
46319;DHT22;32042;50.916;2.926;2023-05-27T22:30:03;12.90;99.90
46319;DHT22;32042;50.916;2.926;2023-05-27T22:32:31;12.90;99.90
46319;DHT22;32042;50.916;2.926;2023-05-27T22:34:57;12.90;99.90
46319;DHT22;32042;50.916;2.926;2023-05-27T22:37:23;12.90;99.90
46319;DHT22;32042;50.916;2.926;2023-05-27T22:39:48;12.80;99.90
46319;DHT22;32042;50.916;2.926;2023-05-27T22:42:14;12.70;99.90
46319;DHT22;32042;50.916;2.926;2023-05-27T22:44:40;12.70;99.90
46319;DHT22;32042;50.916;2.926;2023-05-27T22:47:05;12.70;99.90
46319;DHT22;32042;50.916;2.926;2023-05-27T22:49:31;12.70;99.90
46319;DHT22;32042;50.916;2.926;2023-05-27T22:51:58;12.60;99.90
46319;DHT22;32042;50.916;2.926;2023-05-27T22:54:23;12.60;99.90
46319;DHT22;32042;50.916;2.926;2023-05-27T22:56:49;12.60;99.90
46319;DHT22;32042;50.916;2.926;2023-05-27T22:59:15;12.60;99.90
46319;DHT22;32042;50.916;2.926;2023-05-27T23:01:41;12.50;99.90
46319;DHT22;32042;50.916;2.926;2023-05-27T23:04:07;12.50;99.90
46319;DHT22;32042;50.916;2.926;2023-05-27T23:06:32;12.50;99.90
46319;DHT22;32042;50.916;2.926;2023-05-27T23:08:58;12.50;99.90
46319;DHT22;32042;50.916;2.926;2023-05-27T23:11:24;12.50;99.90
46319;DHT22;32042;50.916;2.926;2023-05-27T23:13:53;12.50;99.90
46319;DHT22;32042;50.916;2.926;2023-05-27T23:16:19;12.60;99.90
46319;DHT22;32042;50.916;2.926;2023-05-27T23:18:45;12.60;99.90
46319;DHT22;32042;50.916;2.926;2023-05-27T23:21:13;12.50;99.90
46319;DHT22;32042;50.916;2.926;2023-05-27T23:23:39;12.50;99.90
46319;DHT22;32042;50.916;2.926;2023-05-27T23:26:04;12.50;99.90
46319;DHT22;32042;50.916;2.926;2023-05-27T23:28:31;12.50;99.90
46319;DHT22;32042;50.916;2.926;2023-05-27T23:30:57;12.40;99.90
46319;DHT22;32042;50.916;2.926;2023-05-27T23:33:22;12.40;99.90
46319;DHT22;32042;50.916;2.926;2023-05-27T23:35:48;12.40;99.90
46319;DHT22;32042;50.916;2.926;2023-05-27T23:38:14;12.40;99.90
46319;DHT22;32042;50.916;2.926;2023-05-27T23:40:40;12.40;99.90
46319;DHT22;32042;50.916;2.926;2023-05-27T23:43:06;12.40;99.90
46319;DHT22;32042;50.916;2.926;2023-05-27T23:45:32;12.40;99.90
46319;DHT22;32042;50.916;2.926;2023-05-27T23:47:58;12.30;99.90
46319;DHT22;32042;50.916;2.926;2023-05-27T23:50:24;12.30;99.90
46319;DHT22;32042;50.916;2.926;2023-05-27T23:52:50;12.30;99.90
46319;DHT22;32042;50.916;2.926;2023-05-27T23:55:16;12.30;99.90
46319;DHT22;32042;50.916;2.926;2023-05-27T23:57:41;12.30;99.90
